Time;durP1;ratioP1;P1;durP2;ratioP2;P2;SDS_P1;SDS_P2;PMS_P1;PMS_P2;Temp;Humidity;BMP_temperature;BMP_pressure;BME280_temperature;BME280_humidity;BME280_pressure;Samples;Min_cycle;Max_cycle;Signal;HPM_P1;HPM_P2
2023/11/01 00:00:25;;;;;;;;;;;23.10;52.50;;;;;;5114189;28;20010;-59
2023/11/01 00:02:52;;;;;;;;;;;23.10;52.50;;;;;;5114290;28;19924;-59
2023/11/01 00:05:19;;;;;;;;;;;23.10;52.60;;;;;;5114130;28;19924;-58
2023/11/01 00:07:46;;;;;;;;;;;23.10;52.60;;;;;;5114053;28;20291;-58
2023/11/01 00:10:13;;;;;;;;;;;23.10;52.60;;;;;;5114447;28;20334;-58
2023/11/01 00:12:40;;;;;;;;;;;23.10;52.60;;;;;;5113859;28;19924;-59
2023/11/01 00:15:08;;;;;;;;;;;23.10;52.60;;;;;;5113564;28;19924;-58
2023/11/01 00:17:36;;;;;;;;;;;23.10;52.60;;;;;;5114071;28;19969;-58
2023/11/01 00:20:06;;;;;;;;;;;23.10;52.70;;;;;;5113516;28;19967;-58
2023/11/01 00:22:33;;;;;;;;;;;23.10;52.70;;;;;;5113435;28;19924;-58
2023/11/01 00:25:00;;;;;;;;;;;23.10;52.70;;;;;;5113635;28;20371;-58
2023/11/01 00:27:32;;;;;;;;;;;23.10;52.70;;;;;;5114152;28;19924;-59
2023/11/01 00:29:59;;;;;;;;;;;23.10;52.70;;;;;;5113771;28;19950;-59
2023/11/01 00:32:26;;;;;;;;;;;23.10;52.70;;;;;;5113630;28;19971;-59
2023/11/01 00:34:54;;;;;;;;;;;23.10;52.70;;;;;;5113280;28;19924;-59
2023/11/01 00:37:21;;;;;;;;;;;23.10;52.60;;;;;;5113695;28;19990;-58
2023/11/01 00:39:48;;;;;;;;;;;23.10;52.60;;;;;;5112933;28;20396;-59
2023/11/01 00:42:15;;;;;;;;;;;23.10;52.50;;;;;;5114335;28;20413;-59
2023/11/01 00:44:42;;;;;;;;;;;23.10;52.50;;;;;;5117732;27;19969;-59
2023/11/01 00:47:09;;;;;;;;;;;23.10;52.50;;;;;;5117841;28;19930;-58
2023/11/01 00:49:36;;;;;;;;;;;23.10;52.50;;;;;;5117572;28;19930;-59
2023/11/01 00:52:04;;;;;;;;;;;23.10;52.40;;;;;;5117755;28;19927;-59
2023/11/01 00:54:31;;;;;;;;;;;23.10;52.50;;;;;;5117533;28;19977;-58
2023/11/01 00:56:58;;;;;;;;;;;23.10;52.50;;;;;;5117477;27;19924;-58
2023/11/01 00:59:25;;;;;;;;;;;23.10;52.50;;;;;;5117803;27;19923;-58
2023/11/01 01:01:52;;;;;;;;;;;23.10;52.50;;;;;;5117612;28;19931;-59
2023/11/01 01:04:19;;;;;;;;;;;23.10;52.50;;;;;;5117371;27;19977;-58
2023/11/01 01:06:46;;;;;;;;;;;23.10;52.40;;;;;;5116382;28;19924;-59
2023/11/01 01:09:13;;;;;;;;;;;23.10;52.50;;;;;;5117465;28;19923;-59
2023/11/01 01:11:40;;;;;;;;;;;23.10;52.40;;;;;;5117228;28;19928;-58
2023/11/01 01:14:07;;;;;;;;;;;23.10;52.50;;;;;;5117050;28;19928;-58
2023/11/01 01:16:35;;;;;;;;;;;23.10;52.40;;;;;;5117047;28;19930;-59
2023/11/01 01:19:03;;;;;;;;;;;23.10;52.50;;;;;;5117215;28;19924;-59
2023/11/01 01:21:30;;;;;;;;;;;23.00;52.40;;;;;;5117249;28;19928;-59
2023/11/01 01:23:57;;;;;;;;;;;23.10;52.50;;;;;;5117236;28;19931;-59
2023/11/01 01:26:24;;;;;;;;;;;23.00;52.40;;;;;;5117008;28;20011;-59
2023/11/01 01:28:51;;;;;;;;;;;23.00;52.40;;;;;;5115716;28;19923;-59
2023/11/01 01:31:18;;;;;;;;;;;23.10;52.50;;;;;;5116818;28;19971;-58
2023/11/01 01:33:45;;;;;;;;;;;23.00;52.50;;;;;;5116860;28;19946;-59
2023/11/01 01:36:12;;;;;;;;;;;23.00;52.50;;;;;;5117228;28;19949;-59
2023/11/01 01:38:39;;;;;;;;;;;23.00;52.50;;;;;;5117150;28;20285;-59
2023/11/01 01:41:06;;;;;;;;;;;23.00;52.50;;;;;;5096435;27;19930;-59
2023/11/01 01:43:33;;;;;;;;;;;23.00;52.50;;;;;;5095941;28;20411;-58
2023/11/01 01:46:09;;;;;;;;;;;23.00;52.50;;;;;;5096254;28;19931;-59
2023/11/01 01:48:37;;;;;;;;;;;23.00;52.50;;;;;;5096241;28;19931;-59
2023/11/01 01:51:05;;;;;;;;;;;23.00;52.50;;;;;;5096492;28;19977;-59
2023/11/01 01:53:33;;;;;;;;;;;23.00;53.10;;;;;;5096179;28;19965;-59
2023/11/01 01:56:00;;;;;;;;;;;23.00;52.50;;;;;;5095750;28;20346;-58
2023/11/01 01:58:27;;;;;;;;;;;23.00;52.40;;;;;;5096351;28;19924;-59
2023/11/01 02:00:55;;;;;;;;;;;23.00;52.40;;;;;;5096025;28;19924;-60
2023/11/01 02:03:22;;;;;;;;;;;23.00;52.40;;;;;;5096321;28;19950;-58
2023/11/01 02:05:50;;;;;;;;;;;23.00;52.40;;;;;;5095940;28;19940;-58
2023/11/01 02:08:17;;;;;;;;;;;23.00;52.40;;;;;;5096200;28;20338;-58
2023/11/01 02:10:44;;;;;;;;;;;23.00;52.30;;;;;;5095853;28;20360;-59
2023/11/01 02:13:12;;;;;;;;;;;23.00;52.30;;;;;;5095998;28;20308;-59
2023/11/01 02:15:39;;;;;;;;;;;23.00;52.30;;;;;;5094491;28;20384;-59
2023/11/01 02:18:06;;;;;;;;;;;23.00;52.30;;;;;;5095404;28;20026;-59
2023/11/01 02:20:42;;;;;;;;;;;23.00;52.30;;;;;;5095978;28;19924;-59
2023/11/01 02:23:10;;;;;;;;;;;23.00;52.30;;;;;;5095232;28;19936;-59
2023/11/01 02:25:38;;;;;;;;;;;23.00;52.40;;;;;;5095481;28;20379;-60
2023/11/01 02:28:06;;;;;;;;;;;23.00;52.40;;;;;;5095186;28;19928;-58
2023/11/01 02:30:33;;;;;;;;;;;23.00;52.40;;;;;;5095358;28;20011;-59
2023/11/01 02:33:00;;;;;;;;;;;23.00;52.40;;;;;;5095538;28;19970;-60
2023/11/01 02:35:27;;;;;;;;;;;23.00;52.40;;;;;;5095377;28;19931;-58
2023/11/01 02:37:54;;;;;;;;;;;23.00;52.40;;;;;;5095162;28;20261;-59
2023/11/01 02:40:21;;;;;;;;;;;23.00;52.40;;;;;;5095085;28;20368;-58
2023/11/01 02:42:51;;;;;;;;;;;22.90;52.40;;;;;;5094211;28;19924;-59
2023/11/01 02:45:18;;;;;;;;;;;23.00;52.50;;;;;;5094021;28;20019;-59
2023/11/01 02:47:45;;;;;;;;;;;22.90;52.40;;;;;;5095262;28;19959;-59
2023/11/01 02:50:14;;;;;;;;;;;22.90;52.40;;;;;;5093319;28;20018;-59
2023/11/01 02:52:41;;;;;;;;;;;22.90;52.40;;;;;;5095225;28;20322;-59
2023/11/01 02:55:09;;;;;;;;;;;22.90;52.50;;;;;;5095029;28;20007;-59
2023/11/01 02:57:37;;;;;;;;;;;22.90;52.50;;;;;;5093489;28;20373;-58
2023/11/01 03:00:06;;;;;;;;;;;22.90;52.50;;;;;;5093392;28;19978;-59
2023/11/01 03:02:36;;;;;;;;;;;22.90;52.50;;;;;;5095262;28;19925;-58
2023/11/01 03:05:04;;;;;;;;;;;22.90;52.50;;;;;;5094593;28;19970;-60
2023/11/01 03:07:31;;;;;;;;;;;22.90;52.50;;;;;;5093426;28;19977;-58
2023/11/01 03:09:59;;;;;;;;;;;22.90;52.50;;;;;;5094786;28;19928;-59
2023/11/01 03:12:25;;;;;;;;;;;22.90;52.60;;;;;;5094825;28;19963;-59
2023/11/01 03:14:52;;;;;;;;;;;22.90;52.50;;;;;;5094340;28;19977;-58
2023/11/01 03:17:19;;;;;;;;;;;22.90;52.50;;;;;;5094370;28;19979;-59
2023/11/01 03:19:46;;;;;;;;;;;22.90;52.40;;;;;;5094463;28;19959;-59
2023/11/01 03:22:13;;;;;;;;;;;22.90;52.40;;;;;;5094614;28;19928;-59
2023/11/01 03:24:40;;;;;;;;;;;22.90;52.40;;;;;;5093990;28;19970;-59
2023/11/01 03:27:07;;;;;;;;;;;22.90;52.30;;;;;;5094395;28;19954;-60
2023/11/01 03:29:34;;;;;;;;;;;22.90;52.30;;;;;;5094319;28;19977;-59
2023/11/01 03:32:03;;;;;;;;;;;22.90;52.30;;;;;;5105843;28;19972;-59
2023/11/01 03:34:30;;;;;;;;;;;22.90;52.30;;;;;;5114612;28;19934;-59
2023/11/01 03:36:57;;;;;;;;;;;22.90;52.40;;;;;;5114637;28;19923;-59
2023/11/01 03:39:24;;;;;;;;;;;22.90;52.30;;;;;;5114688;27;19985;-58
2023/11/01 03:41:51;;;;;;;;;;;22.90;52.40;;;;;;5113984;28;20144;-58
2023/11/01 03:44:18;;;;;;;;;;;22.90;52.40;;;;;;5114195;28;20349;-59
2023/11/01 03:46:46;;;;;;;;;;;22.90;52.40;;;;;;5114593;28;19924;-58
2023/11/01 03:49:13;;;;;;;;;;;22.80;52.30;;;;;;5114389;28;19924;-59
2023/11/01 03:51:40;;;;;;;;;;;22.90;52.40;;;;;;5114402;28;19928;-59
2023/11/01 03:54:07;;;;;;;;;;;22.80;52.30;;;;;;5112977;28;19923;-58
2023/11/01 03:56:34;;;;;;;;;;;22.90;52.40;;;;;;5114010;28;20417;-58
2023/11/01 03:59:00;;;;;;;;;;;22.80;52.40;;;;;;5114327;28;19924;-58
2023/11/01 04:01:28;;;;;;;;;;;22.80;52.40;;;;;;5114463;28;19923;-59
2023/11/01 04:03:55;;;;;;;;;;;22.80;52.40;;;;;;5113768;28;20390;-59
2023/11/01 04:06:22;;;;;;;;;;;22.80;52.40;;;;;;5114215;28;19924;-59
2023/11/01 04:08:49;;;;;;;;;;;22.80;52.40;;;;;;5103389;28;20384;-59
2023/11/01 04:11:16;;;;;;;;;;;22.80;52.40;;;;;;5093787;28;19954;-60
2023/11/01 04:13:43;;;;;;;;;;;22.80;52.50;;;;;;5093115;28;19965;-59
2023/11/01 04:16:10;;;;;;;;;;;22.80;52.50;;;;;;5093841;28;19928;-59
2023/11/01 04:18:37;;;;;;;;;;;22.80;52.50;;;;;;5093216;28;20022;-59
2023/11/01 04:21:04;;;;;;;;;;;22.80;52.50;;;;;;5093447;28;20019;-59
2023/11/01 04:23:31;;;;;;;;;;;22.80;52.50;;;;;;5092113;28;19928;-59
2023/11/01 04:26:00;;;;;;;;;;;22.80;52.50;;;;;;5093591;28;19928;-58
2023/11/01 04:28:27;;;;;;;;;;;22.80;52.50;;;;;;5093777;28;20368;-58
2023/11/01 04:30:54;;;;;;;;;;;22.80;52.50;;;;;;5093286;28;19924;-58
2023/11/01 04:33:21;;;;;;;;;;;22.80;52.50;;;;;;5093204;28;19977;-59
2023/11/01 04:35:48;;;;;;;;;;;22.80;52.50;;;;;;5093396;28;19928;-59
2023/11/01 04:38:18;;;;;;;;;;;22.80;52.40;;;;;;5093552;28;19924;-59
2023/11/01 04:40:45;;;;;;;;;;;22.80;52.10;;;;;;5109211;28;20035;-59
2023/11/01 04:43:12;;;;;;;;;;;22.80;51.90;;;;;;5114040;28;19928;-56
2023/11/01 04:45:39;;;;;;;;;;;22.80;51.70;;;;;;5113583;28;19931;-59
2023/11/01 04:48:06;;;;;;;;;;;22.80;51.60;;;;;;5113551;28;19928;-58
2023/11/01 04:50:34;;;;;;;;;;;22.90;51.50;;;;;;5113673;28;19924;-58
2023/11/01 04:53:01;;;;;;;;;;;22.90;51.30;;;;;;5113484;28;19931;-58
2023/11/01 04:55:28;;;;;;;;;;;22.90;51.10;;;;;;5113466;28;19924;-59
2023/11/01 04:57:55;;;;;;;;;;;22.90;51.10;;;;;;5112382;28;19924;-58
2023/11/01 05:00:22;;;;;;;;;;;22.90;51.10;;;;;;5112735;28;19924;-61
2023/11/01 05:02:49;;;;;;;;;;;22.80;51.10;;;;;;5112828;28;19995;-58
2023/11/01 05:05:17;;;;;;;;;;;22.90;51.10;;;;;;5113910;28;20265;-58
2023/11/01 05:07:44;;;;;;;;;;;22.80;51.10;;;;;;5112948;28;19924;-59
2023/11/01 05:10:11;;;;;;;;;;;22.80;51.10;;;;;;5113872;28;19927;-59
2023/11/01 05:12:38;;;;;;;;;;;22.70;51.10;;;;;;5113785;28;20264;-58
2023/11/01 05:15:05;;;;;;;;;;;22.70;51.10;;;;;;5113105;28;19928;-58
2023/11/01 05:17:32;;;;;;;;;;;22.70;51.10;;;;;;5113143;28;19924;-59
2023/11/01 05:19:59;;;;;;;;;;;22.70;51.10;;;;;;5112829;28;19993;-58
2023/11/01 05:22:26;;;;;;;;;;;22.70;51.10;;;;;;5113524;28;19963;-60
2023/11/01 05:24:53;;;;;;;;;;;22.60;51.00;;;;;;5113246;28;19949;-58
2023/11/01 05:27:20;;;;;;;;;;;22.60;51.00;;;;;;5113155;28;20038;-59
2023/11/01 05:29:47;;;;;;;;;;;22.60;51.00;;;;;;5114470;28;19934;-58
2023/11/01 05:32:14;;;;;;;;;;;22.60;51.00;;;;;;5116887;28;20407;-58
2023/11/01 05:34:41;;;;;;;;;;;22.60;51.00;;;;;;5116648;28;19935;-58
2023/11/01 05:37:11;;;;;;;;;;;22.60;51.00;;;;;;5115218;28;20391;-58
2023/11/01 05:39:40;;;;;;;;;;;22.60;50.90;;;;;;5116718;28;19924;-58
2023/11/01 05:42:08;;;;;;;;;;;22.60;50.90;;;;;;5117040;28;19924;-59
2023/11/01 05:44:35;;;;;;;;;;;22.70;50.90;;;;;;5116639;28;19931;-59
2023/11/01 05:47:02;;;;;;;;;;;22.60;50.80;;;;;;5115266;28;19934;-57
2023/11/01 05:49:29;;;;;;;;;;;22.70;51.30;;;;;;5117106;28;19976;-58
2023/11/01 05:51:56;;;;;;;;;;;22.70;50.70;;;;;;5115359;28;20022;-59
2023/11/01 05:54:23;;;;;;;;;;;22.70;50.60;;;;;;5116262;28;19953;-58
2023/11/01 05:56:50;;;;;;;;;;;22.70;50.50;;;;;;5116376;27;20033;-58
2023/11/01 05:59:17;;;;;;;;;;;22.70;50.40;;;;;;5116130;28;19924;-58
2023/11/01 06:01:44;;;;;;;;;;;22.70;50.40;;;;;;5113834;28;19924;-59
2023/11/01 06:04:11;;;;;;;;;;;22.70;50.30;;;;;;5095897;28;19934;-59
2023/11/01 06:06:38;;;;;;;;;;;22.70;50.10;;;;;;5096059;28;19924;-59
2023/11/01 06:09:05;;;;;;;;;;;22.70;50.10;;;;;;5095487;28;20365;-59
2023/11/01 06:11:32;;;;;;;;;;;22.80;50.00;;;;;;5095680;28;19924;-58
2023/11/01 06:13:59;;;;;;;;;;;22.80;50.00;;;;;;5095639;28;19928;-59
2023/11/01 06:16:26;;;;;;;;;;;22.90;49.90;;;;;;5098309;28;19965;-59
2023/11/01 06:26:04;;;;;;;;;;;22.90;49.70;;;;;;5112720;28;20364;-58
2023/11/01 06:28:31;;;;;;;;;;;22.90;49.60;;;;;;5116022;28;19935;-59
2023/11/01 06:30:58;;;;;;;;;;;22.90;49.60;;;;;;5115303;28;20318;-59
2023/11/01 06:33:25;;;;;;;;;;;22.90;49.60;;;;;;5115784;28;19977;-59
2023/11/01 06:35:52;;;;;;;;;;;23.00;49.50;;;;;;5115768;27;20006;-58
2023/11/01 06:38:20;;;;;;;;;;;22.90;49.40;;;;;;5115633;28;20340;-59
2023/11/01 06:40:47;;;;;;;;;;;23.00;49.40;;;;;;5115435;28;19923;-59
2023/11/01 06:43:14;;;;;;;;;;;23.00;49.30;;;;;;5115455;28;19977;-58
2023/11/01 06:45:41;;;;;;;;;;;23.00;49.20;;;;;;5115238;28;19930;-59
2023/11/01 06:48:09;;;;;;;;;;;23.00;49.20;;;;;;5114898;28;19923;-58
2023/11/01 06:50:39;;;;;;;;;;;23.00;49.10;;;;;;5115455;28;19975;-58
2023/11/01 06:53:06;;;;;;;;;;;23.00;49.00;;;;;;5115083;28;19928;-58
2023/11/01 06:55:33;;;;;;;;;;;23.10;49.10;;;;;;5115032;28;19924;-58
2023/11/01 06:58:00;;;;;;;;;;;23.00;49.00;;;;;;5114822;28;19927;-58
2023/11/01 07:00:27;;;;;;;;;;;23.10;49.00;;;;;;5114858;28;19924;-58
2023/11/01 07:02:54;;;;;;;;;;;23.10;49.10;;;;;;5114846;28;20433;-58
2023/11/01 07:05:21;;;;;;;;;;;23.10;49.00;;;;;;5114757;28;20326;-59
2023/11/01 07:07:48;;;;;;;;;;;23.10;49.00;;;;;;5115099;28;19928;-59
2023/11/01 07:10:18;;;;;;;;;;;23.10;49.00;;;;;;5114975;28;19947;-58
2023/11/01 07:12:45;;;;;;;;;;;23.10;49.00;;;;;;5114648;28;20391;-59
2023/11/01 07:15:12;;;;;;;;;;;23.20;49.00;;;;;;5110357;28;20369;-59
2023/11/01 07:17:39;;;;;;;;;;;23.10;49.00;;;;;;5114028;28;20445;-58
2023/11/01 07:20:07;;;;;;;;;;;23.20;49.00;;;;;;5114771;28;20022;-58
2023/11/01 07:22:34;;;;;;;;;;;23.20;48.90;;;;;;5114683;28;19924;-58
2023/11/01 07:25:01;;;;;;;;;;;23.20;48.90;;;;;;5114405;28;19965;-58
2023/11/01 07:27:28;;;;;;;;;;;23.20;48.90;;;;;;5114665;28;19923;-58
2023/11/01 07:29:55;;;;;;;;;;;23.20;48.80;;;;;;5114694;28;20326;-59
2023/11/01 07:32:22;;;;;;;;;;;23.30;48.90;;;;;;5114591;28;20441;-58
2023/11/01 07:34:50;;;;;;;;;;;23.30;48.80;;;;;;5114276;28;19965;-60
2023/11/01 07:37:17;;;;;;;;;;;23.30;48.90;;;;;;5114635;28;19924;-59
2023/11/01 07:39:44;;;;;;;;;;;23.30;48.80;;;;;;5114403;28;19923;-59
2023/11/01 07:42:10;;;;;;;;;;;23.30;49.10;;;;;;5113684;28;19931;-59
2023/11/01 07:44:38;;;;;;;;;;;23.30;48.80;;;;;;5114550;28;19993;-59
2023/11/01 07:47:05;;;;;;;;;;;23.30;48.80;;;;;;5114433;28;19924;-59
2023/11/01 07:49:32;;;;;;;;;;;23.30;48.80;;;;;;5114282;28;20289;-59
2023/11/01 07:51:59;;;;;;;;;;;23.30;48.80;;;;;;5114216;28;19931;-59
2023/11/01 07:54:26;;;;;;;;;;;23.40;48.80;;;;;;5114378;28;19928;-59
2023/11/01 07:56:54;;;;;;;;;;;23.40;48.80;;;;;;5114061;28;19970;-60
2023/11/01 07:59:21;;;;;;;;;;;23.40;48.80;;;;;;5113811;28;20011;-59
2023/11/01 08:01:48;;;;;;;;;;;23.40;48.80;;;;;;5113815;28;20462;-59
2023/11/01 08:04:17;;;;;;;;;;;23.40;48.80;;;;;;5113779;28;20371;-58
2023/11/01 08:06:45;;;;;;;;;;;23.40;48.80;;;;;;5113818;28;19924;-59
2023/11/01 08:09:13;;;;;;;;;;;23.40;48.80;;;;;;5114330;28;19959;-59
2023/11/01 08:11:40;;;;;;;;;;;23.40;48.80;;;;;;5113789;28;19924;-58
2023/11/01 08:14:07;;;;;;;;;;;23.40;48.70;;;;;;5113675;28;20398;-58
2023/11/01 08:16:34;;;;;;;;;;;23.40;48.80;;;;;;5114052;28;19924;-58
2023/11/01 08:19:02;;;;;;;;;;;23.50;48.80;;;;;;5113627;28;19924;-59
2023/11/01 08:21:29;;;;;;;;;;;23.50;48.80;;;;;;5113841;28;19923;-59
2023/11/01 08:23:56;;;;;;;;;;;23.50;48.80;;;;;;5113113;28;19978;-59
2023/11/01 08:26:23;;;;;;;;;;;23.50;48.80;;;;;;5114101;28;20338;-59
2023/11/01 08:28:50;;;;;;;;;;;23.50;49.40;;;;;;5114023;28;19924;-59
2023/11/01 08:31:17;;;;;;;;;;;23.60;48.90;;;;;;5113827;28;19931;-59
2023/11/01 08:33:44;;;;;;;;;;;23.50;48.80;;;;;;5113471;28;19959;-59
2023/11/01 08:36:11;;;;;;;;;;;23.60;48.80;;;;;;5113921;28;19924;-59
2023/11/01 08:38:38;;;;;;;;;;;23.60;48.80;;;;;;5113061;28;19959;-59
2023/11/01 08:41:05;;;;;;;;;;;23.60;48.70;;;;;;5113519;28;19924;-58
2023/11/01 08:43:32;;;;;;;;;;;23.60;48.70;;;;;;5113503;28;19979;-58
2023/11/01 08:45:59;;;;;;;;;;;23.60;48.60;;;;;;5112232;28;20346;-60
2023/11/01 08:48:27;;;;;;;;;;;23.70;48.60;;;;;;5113261;28;19924;-59
2023/11/01 08:50:54;;;;;;;;;;;23.70;48.60;;;;;;5113896;28;19995;-59
2023/11/01 08:53:21;;;;;;;;;;;23.70;48.50;;;;;;5113616;28;19924;-58
2023/11/01 08:55:51;;;;;;;;;;;23.70;48.50;;;;;;5113294;28;19950;-58
2023/11/01 08:58:18;;;;;;;;;;;23.70;48.40;;;;;;5095008;28;19923;-59
2023/11/01 09:00:45;;;;;;;;;;;23.70;48.40;;;;;;5113187;28;19924;-59
2023/11/01 09:03:14;;;;;;;;;;;23.70;48.30;;;;;;5113683;28;19923;-58
2023/11/01 09:05:42;;;;;;;;;;;23.70;48.30;;;;;;5115853;28;19931;-59
2023/11/01 09:08:09;;;;;;;;;;;23.80;48.30;;;;;;5097049;28;19924;-59
2023/11/01 09:10:36;;;;;;;;;;;23.80;48.20;;;;;;5096780;28;19928;-58
2023/11/01 09:13:03;;;;;;;;;;;23.80;48.20;;;;;;5096576;28;19932;-59
2023/11/01 09:15:30;;;;;;;;;;;23.80;48.10;;;;;;5078734;28;19931;-59
2023/11/01 09:17:57;;;;;;;;;;;23.80;48.00;;;;;;5096252;28;20265;-59
2023/11/01 09:20:27;;;;;;;;;;;23.80;48.00;;;;;;5096677;28;19924;-59
2023/11/01 09:22:56;;;;;;;;;;;23.90;48.00;;;;;;5096420;28;19931;-59
2023/11/01 09:25:24;;;;;;;;;;;23.90;47.90;;;;;;5096735;28;19928;-59
2023/11/01 09:27:51;;;;;;;;;;;23.90;47.90;;;;;;5106071;28;20392;-59
2023/11/01 09:30:18;;;;;;;;;;;23.90;47.80;;;;;;5116855;28;19963;-59
2023/11/01 09:32:45;;;;;;;;;;;23.90;47.80;;;;;;5116775;28;20433;-59
2023/11/01 09:35:12;;;;;;;;;;;23.90;47.70;;;;;;5117178;28;19924;-59
2023/11/01 09:37:39;;;;;;;;;;;23.90;47.70;;;;;;5116295;28;20368;-59
2023/11/01 09:40:10;;;;;;;;;;;24.00;47.70;;;;;;5116527;28;19962;-59
2023/11/01 09:42:38;;;;;;;;;;;24.00;47.70;;;;;;5098684;28;20022;-59
2023/11/01 09:45:09;;;;;;;;;;;24.00;47.70;;;;;;5116524;28;19965;-59
2023/11/01 09:47:37;;;;;;;;;;;24.00;47.80;;;;;;5107915;28;19951;-59
2023/11/01 09:50:05;;;;;;;;;;;24.00;47.80;;;;;;5116211;28;19932;-58
2023/11/01 09:52:32;;;;;;;;;;;24.00;47.80;;;;;;5116602;28;19946;-58
2023/11/01 09:55:03;;;;;;;;;;;24.00;47.70;;;;;;5116353;28;20403;-59
2023/11/01 09:57:32;;;;;;;;;;;24.10;47.70;;;;;;5098285;28;19931;-58
2023/11/01 10:00:01;;;;;;;;;;;24.10;47.70;;;;;;5115956;28;19927;-59
2023/11/01 10:02:28;;;;;;;;;;;24.10;47.60;;;;;;5116290;28;20004;-59
2023/11/01 10:04:56;;;;;;;;;;;24.10;47.60;;;;;;5098447;28;19924;-58
2023/11/01 10:07:23;;;;;;;;;;;24.10;47.30;;;;;;5116297;28;19927;-59
2023/11/01 10:09:50;;;;;;;;;;;24.10;47.20;;;;;;5116251;28;20336;-59
2023/11/01 10:12:17;;;;;;;;;;;24.10;47.20;;;;;;5116022;28;19924;-58
2023/11/01 10:14:44;;;;;;;;;;;24.10;47.10;;;;;;5115536;28;19967;-58
2023/11/01 10:17:11;;;;;;;;;;;24.20;47.20;;;;;;5116239;28;19935;-59
2023/11/01 10:19:40;;;;;;;;;;;24.20;47.70;;;;;;5115300;28;20299;-58
2023/11/01 10:22:07;;;;;;;;;;;24.20;47.00;;;;;;5115552;28;19977;-58
2023/11/01 10:24:34;;;;;;;;;;;24.20;47.00;;;;;;5115860;28;19927;-58
2023/11/01 10:27:01;;;;;;;;;;;24.20;47.00;;;;;;5115516;28;19924;-59
2023/11/01 10:29:29;;;;;;;;;;;24.20;46.90;;;;;;5115606;28;19970;-59
2023/11/01 10:31:56;;;;;;;;;;;24.20;46.90;;;;;;5115237;28;19967;-58
2023/11/01 10:34:28;;;;;;;;;;;24.20;46.80;;;;;;5115870;28;19927;-59
2023/11/01 10:36:58;;;;;;;;;;;24.30;46.80;;;;;;5115691;28;19946;-59
2023/11/01 10:39:26;;;;;;;;;;;24.30;46.70;;;;;;5115758;28;19978;-58
2023/11/01 10:41:54;;;;;;;;;;;24.30;46.60;;;;;;5115898;28;19931;-58
2023/11/01 10:44:21;;;;;;;;;;;24.30;46.60;;;;;;5115100;28;19923;-58
2023/11/01 10:46:49;;;;;;;;;;;24.30;46.50;;;;;;5115256;28;19931;-59
2023/11/01 10:49:16;;;;;;;;;;;24.30;46.50;;;;;;5115691;28;19924;-58
2023/11/01 10:51:43;;;;;;;;;;;24.30;46.40;;;;;;5114924;28;19924;-58
2023/11/01 10:54:11;;;;;;;;;;;24.30;46.40;;;;;;5115582;28;20307;-58
2023/11/01 10:56:39;;;;;;;;;;;24.30;46.30;;;;;;5115538;28;19931;-58
2023/11/01 10:59:12;;;;;;;;;;;24.30;46.20;;;;;;5114840;28;19927;-59
2023/11/01 11:01:44;;;;;;;;;;;24.30;46.10;;;;;;5115683;28;20006;-59
2023/11/01 11:04:26;;;;;;;;;;;24.30;46.10;;;;;;5115283;28;19931;-59
2023/11/01 11:06:57;;;;;;;;;;;24.40;46.20;;;;;;5115290;28;19928;-58
2023/11/01 11:09:25;;;;;;;;;;;24.40;46.20;;;;;;5115073;28;19927;-59
2023/11/01 11:12:13;;;;;;;;;;;24.40;46.10;;;;;;5115016;28;19936;-58
2023/11/01 11:14:44;;;;;;;;;;;24.40;46.10;;;;;;5114950;28;19924;-58
2023/11/01 11:17:13;;;;;;;;;;;24.40;46.10;;;;;;5115130;28;19927;-58
2023/11/01 11:20:00;;;;;;;;;;;24.40;46.10;;;;;;5114490;28;20284;-59
2023/11/01 11:22:49;;;;;;;;;;;24.50;46.10;;;;;;5113987;28;20149;-59
2023/11/01 11:25:36;;;;;;;;;;;24.50;46.00;;;;;;5114560;28;19966;-56
2023/11/01 11:28:05;;;;;;;;;;;24.50;45.90;;;;;;5113628;28;20026;-59
2023/11/01 11:30:52;;;;;;;;;;;24.50;45.70;;;;;;5113993;28;19930;-59
2023/11/01 11:33:19;;;;;;;;;;;24.50;45.70;;;;;;5113972;28;19924;-59
2023/11/01 11:36:06;;;;;;;;;;;24.50;45.70;;;;;;5114983;28;19924;-59
2023/11/01 11:38:36;;;;;;;;;;;24.50;45.80;;;;;;5114474;28;19976;-59
2023/11/01 11:41:18;;;;;;;;;;;24.50;45.50;;;;;;5114569;28;19957;-59
2023/11/01 11:44:02;;;;;;;;;;;24.50;45.40;;;;;;5114300;28;19923;-59
2023/11/01 11:46:31;;;;;;;;;;;24.50;45.30;;;;;;5114372;28;20364;-59
2023/11/01 11:48:59;;;;;;;;;;;24.50;45.20;;;;;;5114637;28;19967;-59
2023/11/01 11:51:27;;;;;;;;;;;24.50;45.20;;;;;;5114721;28;19924;-59
2023/11/01 11:53:54;;;;;;;;;;;24.50;45.10;;;;;;5114276;28;19973;-58
2023/11/01 11:56:22;;;;;;;;;;;24.50;45.10;;;;;;5114371;28;19989;-59
2023/11/01 11:58:49;;;;;;;;;;;24.50;45.10;;;;;;5113578;28;19924;-59
2023/11/01 12:01:26;;;;;;;;;;;24.60;45.00;;;;;;5114475;28;19931;-59
2023/11/01 12:03:59;;;;;;;;;;;24.60;45.00;;;;;;5114003;28;19932;-59
2023/11/01 12:06:44;;;;;;;;;;;24.50;44.80;;;;;;5114033;28;19924;-58
2023/11/01 12:09:11;;;;;;;;;;;24.50;44.70;;;;;;5113992;28;19973;-58
2023/11/01 12:11:38;;;;;;;;;;;24.60;44.70;;;;;;5114149;28;19931;-59
2023/11/01 12:14:06;;;;;;;;;;;24.60;44.70;;;;;;5113966;28;20380;-58
2023/11/01 12:16:33;;;;;;;;;;;24.60;44.60;;;;;;5113873;28;19977;-60
2023/11/01 12:19:13;;;;;;;;;;;24.60;44.60;;;;;;5113077;28;19927;-58
2023/11/01 12:21:41;;;;;;;;;;;24.60;44.80;;;;;;5113537;28;19924;-59
2023/11/01 12:24:09;;;;;;;;;;;24.60;44.80;;;;;;5114130;28;19963;-58
2023/11/01 12:26:56;;;;;;;;;;;24.60;44.80;;;;;;5114220;28;19930;-59
2023/11/01 12:29:31;;;;;;;;;;;24.60;44.80;;;;;;5114128;28;20265;-59
2023/11/01 12:31:59;;;;;;;;;;;24.60;44.70;;;;;;5113156;28;20014;-58
2023/11/01 12:34:26;;;;;;;;;;;24.60;44.70;;;;;;5113809;28;19971;-58
2023/11/01 12:37:01;;;;;;;;;;;24.60;44.70;;;;;;5113551;28;20379;-59
2023/11/01 12:39:28;;;;;;;;;;;24.60;44.60;;;;;;5116094;28;20000;-58
2023/11/01 12:41:55;;;;;;;;;;;24.60;44.60;;;;;;5117602;28;19969;-59
2023/11/01 12:44:25;;;;;;;;;;;24.60;44.50;;;;;;5117791;28;19931;-58
2023/11/01 12:46:56;;;;;;;;;;;24.60;44.40;;;;;;5118003;28;19974;-58
2023/11/01 12:49:23;;;;;;;;;;;24.60;44.30;;;;;;5117458;28;20014;-58
2023/11/01 12:51:50;;;;;;;;;;;24.60;44.30;;;;;;5117365;28;19928;-59
2023/11/01 12:54:17;;;;;;;;;;;24.70;44.20;;;;;;5117818;28;19970;-59
2023/11/01 12:56:44;;;;;;;;;;;24.70;44.20;;;;;;5117569;28;19935;-59
2023/11/01 12:59:12;;;;;;;;;;;24.60;44.60;;;;;;5117548;28;20384;-58
2023/11/01 13:01:39;;;;;;;;;;;24.70;44.10;;;;;;5117067;28;19954;-60
2023/11/01 13:04:07;;;;;;;;;;;24.70;44.00;;;;;;5117065;28;20380;-58
2023/11/01 13:06:34;;;;;;;;;;;24.70;44.00;;;;;;5117886;28;19931;-59
2023/11/01 13:09:02;;;;;;;;;;;24.70;44.00;;;;;;5117422;28;19963;-58
2023/11/01 13:11:29;;;;;;;;;;;24.70;43.90;;;;;;5117371;28;19931;-58
2023/11/01 13:13:56;;;;;;;;;;;24.70;43.90;;;;;;5117482;28;20334;-59
2023/11/01 13:16:23;;;;;;;;;;;24.70;43.80;;;;;;5117691;28;20288;-59
2023/11/01 13:18:50;;;;;;;;;;;24.70;43.80;;;;;;5117181;28;19923;-59
2023/11/01 13:21:17;;;;;;;;;;;24.60;43.70;;;;;;5116492;28;19931;-58
2023/11/01 13:23:44;;;;;;;;;;;24.60;43.70;;;;;;5117188;28;20338;-59
2023/11/01 13:26:11;;;;;;;;;;;24.60;43.70;;;;;;5117388;28;20276;-58
2023/11/01 13:28:41;;;;;;;;;;;24.60;43.60;;;;;;5117264;28;19986;-59
2023/11/01 13:31:08;;;;;;;;;;;24.60;43.80;;;;;;5117025;28;19976;-58
2023/11/01 13:33:35;;;;;;;;;;;24.60;43.70;;;;;;5116975;28;19954;-58
2023/11/01 13:36:03;;;;;;;;;;;24.60;43.60;;;;;;5117207;28;19994;-59
2023/11/01 13:38:30;;;;;;;;;;;24.60;43.60;;;;;;5116474;28;20022;-58
2023/11/01 13:40:57;;;;;;;;;;;24.60;43.60;;;;;;5116422;28;19931;-59
2023/11/01 13:43:24;;;;;;;;;;;24.60;43.60;;;;;;5116704;28;20303;-59
2023/11/01 13:45:52;;;;;;;;;;;24.60;43.60;;;;;;5116943;28;20322;-58
2023/11/01 13:48:19;;;;;;;;;;;24.60;43.60;;;;;;5098678;28;19954;-58
2023/11/01 13:50:47;;;;;;;;;;;24.60;43.60;;;;;;5108099;28;19940;-58
2023/11/01 13:53:14;;;;;;;;;;;24.60;43.60;;;;;;5116844;28;19924;-58
2023/11/01 13:55:45;;;;;;;;;;;24.60;43.70;;;;;;5116032;28;20383;-58
2023/11/01 13:58:16;;;;;;;;;;;24.60;43.50;;;;;;5116494;27;20283;-58
2023/11/01 14:00:43;;;;;;;;;;;24.60;43.50;;;;;;5116135;28;19947;-59
2023/11/01 14:03:10;;;;;;;;;;;24.60;43.50;;;;;;5116468;28;19927;-59
2023/11/01 14:05:39;;;;;;;;;;;24.60;43.50;;;;;;5116573;28;19938;-59
2023/11/01 14:08:07;;;;;;;;;;;24.60;43.60;;;;;;5116549;28;19923;-59
2023/11/01 14:10:35;;;;;;;;;;;24.50;43.80;;;;;;5116233;28;19977;-58
2023/11/01 14:13:06;;;;;;;;;;;24.50;43.90;;;;;;5116167;28;19931;-59
2023/11/01 14:15:33;;;;;;;;;;;24.50;44.10;;;;;;5115976;28;19931;-58
2023/11/01 14:18:01;;;;;;;;;;;24.50;44.20;;;;;;5116151;28;19924;-59
2023/11/01 14:20:29;;;;;;;;;;;24.50;44.30;;;;;;5116045;28;20285;-58
2023/11/01 14:22:56;;;;;;;;;;;24.50;44.40;;;;;;5097675;28;20292;-59
2023/11/01 14:25:24;;;;;;;;;;;24.50;44.50;;;;;;5115333;28;20019;-59
2023/11/01 14:27:50;;;;;;;;;;;24.50;44.60;;;;;;5115427;28;19931;-59